Beausejour, Canada
Current Conditions -  °F | °C
As of 6:00 AM on Monday 24 Nov 2014 (Local Time) from CYWG Reporting Station
Few Clouds Few Clouds  
Wind Chill: -17°   Ceiling: Unl
Heat Index:   Visibility: 15mi
Dew Point: -4°   Wind: 17mph
Humidity: 72%   Direction: 350°N
Pressure: 29.75"   Gusts: NA
Location:  50.06°N, 96.51°W
Report Text: CYWG 241200Z 35015KT 15SM FEW016 M16/M20 A2975 RMK SC2 SLP096
Loading
Personal Weather Stations






























Interactive Weather Map New forecast layout! Learn more

10-Day Weather Forecast

Advertisements
Track Severe Weather on mobile